| time (UTC) | temp F | wind direction | speed MPH | gust MPH | rain 1hr in | rain 24hr in | rain mn in | humidity % | barometer mb |
| 20260503225544 | 72 | 359 | 3.0 | 11.0 | 0.00 | 0.00 | 0.00 | 45 | 1025.3 |
| 20260503225044 | 72 | 359 | 3.0 | 10.0 | 0.00 | 0.00 | 0.00 | 45 | 1025.4 |
| 20260503224544 | 72 | 359 | 4.0 | 10.0 | 0.00 | 0.00 | 0.00 | 44 | 1025.5 |
| 20260503224045 | 72 | 313 | 3.0 | 8.0 | 0.00 | 0.00 | 0.00 | 44 | 1025.4 |
| 20260503223518 | 72 | 341 | 3.0 | 9.0 | 0.00 | 0.00 | 0.00 | 45 | 1025.7 |
| 20260503223012 | 71 | 302 | 3.0 | 11.0 | 0.00 | 0.00 | 0.00 | 45 | 1025.7 |
| 20260503222512 | 71 | 326 | 5.0 | 11.0 | 0.00 | 0.00 | 0.00 | 45 | 1025.9 |
| 20260503222011 | 71 | 359 | 4.0 | 12.0 | 0.00 | 0.00 | 0.00 | 45 | 1025.9 |
| 20260503221511 | 71 | 323 | 4.0 | 14.0 | 0.00 | 0.00 | 0.00 | 45 | 1026.0 |
| 20260503221015 | 72 | 301 | 5.0 | 14.0 | 0.00 | 0.00 | 0.00 | 45 | 1026.2 |
| 20260503220508 | 72 | 21 | 3.0 | 9.0 | 0.00 | 0.00 | 0.00 | 45 | 1026.1 |
| 20260503220024 | 71 | 354 | 4.0 | 14.0 | 0.00 | 0.00 | 0.00 | 45 | 1026.2 |
| 20260503215507 | 71 | 312 | 4.0 | 11.0 | 0.00 | 0.00 | 0.00 | 45 | 1026.5 |
| 20260503215005 | 72 | 326 | 7.0 | 11.0 | 0.00 | 0.00 | 0.00 | 44 | 1026.6 |
| 20260503214505 | 73 | 329 | 3.0 | 9.0 | 0.00 | 0.00 | 0.00 | 44 | 1026.5 |
| 20260503214005 | 72 | 280 | 4.0 | 9.0 | 0.00 | 0.00 | 0.00 | 44 | 1026.7 |
| 20260503213504 | 72 | 272 | 3.0 | 9.0 | 0.00 | 0.00 | 0.00 | 45 | 1026.6 |
| 20260503213008 | 72 | 321 | 5.0 | 11.0 | 0.00 | 0.00 | 0.00 | 44 | 1026.8 |
| 20260503212502 | 72 | 287 | 2.0 | 11.0 | 0.00 | 0.00 | 0.00 | 45 | 1026.9 |
| 20260503212002 | 72 | 345 | 5.0 | 13.0 | 0.00 | 0.00 | 0.00 | 45 | 1027.1 |
| 20260503211502 | 72 | 347 | 6.0 | 13.0 | 0.00 | 0.00 | 0.00 | 45 | 1027.1 |
| 20260503211100 | 72 | 359 | 4.0 | 9.0 | 0.00 | 0.00 | 0.00 | 46 | 1027.0 |
| 20260503210556 | 71 | 267 | 4.0 | 10.0 | 0.00 | 0.00 | 0.00 | 46 | 1027.1 |
| 20260503205554 | 71 | 301 | 5.0 | 11.0 | 0.00 | 0.00 | 0.00 | 47 | 1027.2 |
| 20260503205056 | 71 | 20 | 4.0 | 11.0 | 0.00 | 0.00 | 0.00 | 48 | 1027.4 |
| 20260503204554 | 71 | 333 | 2.0 | 10.0 | 0.00 | 0.00 | 0.00 | 49 | 1027.3 |
| 20260503204055 | 70 | 4 | 6.0 | 10.0 | 0.00 | 0.00 | 0.00 | 49 | 1027.4 |
| 20260503203550 | 70 | 354 | 4.0 | 8.0 | 0.00 | 0.00 | 0.00 | 50 | 1027.6 |
| 20260503203053 | 70 | 311 | 3.0 | 8.0 | 0.00 | 0.00 | 0.00 | 51 | 1027.8 |
| 20260503202548 | 69 | 251 | 2.0 | 8.0 | 0.00 | 0.00 | 0.00 | 52 | 1027.9 |
| 20260503202047 | 69 | 359 | 3.0 | 9.0 | 0.00 | 0.00 | 0.00 | 52 | 1028.0 |
| 20260503201546 | 69 | 359 | 4.0 | 11.0 | 0.00 | 0.00 | 0.00 | 52 | 1028.2 |
| 20260503201045 | 69 | 333 | 7.0 | 11.0 | 0.00 | 0.00 | 0.00 | 52 | 1028.5 |
| 20260503200545 | 69 | 70 | 3.0 | 9.0 | 0.00 | 0.00 | 0.00 | 53 | 1028.8 |
| 20260503200046 | 68 | 27 | 2.0 | 8.0 | 0.00 | 0.00 | 0.00 | 54 | 1028.8 |
| 20260503195538 | 68 | 245 | 2.0 | 8.0 | 0.00 | 0.01 | 0.00 | 55 | 1029.0 |
| 20260503195038 | 67 | 27 | 3.0 | 8.0 | 0.00 | 0.01 | 0.00 | 55 | 1029.2 |
| 20260503194541 | 68 | 335 | 3.0 | 8.0 | 0.00 | 0.01 | 0.00 | 55 | 1029.2 |
| 20260503194036 | 67 | 359 | 2.0 | 8.0 | 0.00 | 0.01 | 0.00 | 55 | 1029.2 |
| 20260503193535 | 67 | 322 | 3.0 | 11.0 | 0.00 | 0.01 | 0.00 | 56 | 1029.3 |
| 20260503193036 | 67 | 359 | 5.0 | 11.0 | 0.00 | 0.01 | 0.00 | 56 | 1029.6 |
| 20260503192533 | 67 | 310 | 4.0 | 9.0 | 0.00 | 0.01 | 0.00 | 55 | 1029.6 |
| 20260503192034 | 67 | 297 | 3.0 | 9.0 | 0.00 | 0.01 | 0.00 | 56 | 1029.6 |
| 20260503191532 | 67 | 269 | 4.0 | 9.0 | 0.00 | 0.01 | 0.00 | 56 | 1029.8 |
| 20260503191031 | 67 | 255 | 1.0 | 6.0 | 0.00 | 0.01 | 0.00 | 58 | 1029.9 |
| 20260503190529 | 66 | 308 | 2.0 | 6.0 | 0.00 | 0.01 | 0.00 | 59 | 1030.1 |
| 20260503190029 | 66 | 275 | 2.0 | 8.0 | 0.00 | 0.01 | 0.00 | 59 | 1030.3 |
| 20260503185526 | 65 | 312 | 2.0 | 8.0 | 0.00 | 0.01 | 0.01 | 60 | 1030.6 |
| 20260503185025 | 65 | 290 | 2.0 | 8.0 | 0.00 | 0.01 | 0.01 | 61 | 1030.6 |
| 20260503184522 | 64 | 262 | 1.0 | 7.0 | 0.00 | 0.01 | 0.01 | 62 | 1030.5 |
| 20260503184021 | 64 | 293 | 0.0 | 5.0 | 0.00 | 0.01 | 0.01 | 63 | 1030.6 |
| 20260503183521 | 64 | 272 | 1.0 | 7.0 | 0.00 | 0.01 | 0.01 | 63 | 1030.8 |
| 20260503183031 | 63 | 281 | 1.0 | 7.0 | 0.00 | 0.01 | 0.01 | 65 | 1031.0 |
| 20260503182517 | 62 | 281 | 3.0 | 7.0 | 0.00 | 0.01 | 0.01 | 66 | 1031.1 |
| 20260503182017 | 62 | 359 | 3.0 | 6.0 | 0.00 | 0.01 | 0.01 | 67 | 1031.2 |
| 20260503181516 | 62 | 306 | 2.0 | 6.0 | 0.00 | 0.01 | 0.01 | 67 | 1031.4 |
| 20260503181016 | 61 | 240 | 2.0 | 6.0 | 0.00 | 0.01 | 0.01 | 68 | 1031.3 |
| 20260503180516 | 61 | 330 | 2.0 | 6.0 | 0.00 | 0.01 | 0.01 | 68 | 1031.6 |
| 20260503180017 | 61 | 299 | 2.0 | 6.0 | 0.00 | 0.01 | 0.01 | 69 | 1031.6 |
| 20260503175511 | 60 | 359 | 2.0 | 6.0 | 0.00 | 0.01 | 0.01 | 69 | 1031.8 |
| 20260503175015 | 60 | 340 | 0.0 | 6.0 | 0.00 | 0.01 | 0.01 | 69 | 1031.7 |
| 20260503174512 | 61 | 8 | 1.0 | 6.0 | 0.00 | 0.01 | 0.01 | 69 | 1031.8 |
| 20260503174011 | 61 | 283 | 2.0 | 6.0 | 0.00 | 0.01 | 0.01 | 69 | 1031.8 |
| 20260503173512 | 60 | 305 | 2.0 | 5.0 | 0.00 | 0.01 | 0.01 | 71 | 1032.0 |
| 20260503173008 | 59 | 221 | 2.0 | 5.0 | 0.00 | 0.01 | 0.01 | 72 | 1032.0 |
| 20260503172506 | 59 | 60 | 0.0 | 3.0 | 0.00 | 0.01 | 0.01 | 74 | 1032.2 |
| 20260503172006 | 58 | 322 | 0.0 | 4.0 | 0.00 | 0.01 | 0.01 | 75 | 1032.3 |
| 20260503171505 | 57 | 318 | 2.0 | 4.0 | 0.00 | 0.01 | 0.01 | 75 | 1032.4 |
| 20260503171003 | 57 | 4 | 0.0 | 4.0 | 0.00 | 0.01 | 0.01 | 76 | 1032.4 |
| 20260503170502 | 56 | 252 | 0.0 | 3.0 | 0.00 | 0.01 | 0.01 | 76 | 1032.3 |
| 20260503150550 | 52 | 13 | 1.0 | 6.0 | 0.00 | 0.01 | 0.01 | 67 | 1032.8 |
| 20260503131010 | 51 | 308 | 1.0 | 4.0 | 0.00 | 0.01 | 0.01 | 70 | 1031.4 |
| 20260503130506 | 51 | 339 | 1.0 | 4.0 | 0.00 | 0.01 | 0.01 | 70 | 1031.2 |
| 20260503110558 | 51 | 348 | 2.0 | 4.0 | 0.00 | 0.01 | 0.01 | 70 | 1029.9 |
| 20260503081518 | 52 | 336 | 0.0 | 1.0 | 0.00 | 0.01 | 0.01 | 72 | 1030.0 |
| 20260503081015 | 52 | 336 | 0.0 | 2.0 | 0.00 | 0.01 | 0.01 | 72 | 1030.1 |
| 20260503080516 | 52 | 336 | 0.0 | 3.0 | 0.00 | 0.01 | 0.01 | 72 | 1030.3 |
| 20260503072545 | 52 | 309 | 1.0 | 4.0 | 0.00 | 0.01 | 0.01 | 72 | 1031.1 |
| 20260503072042 | 52 | 354 | 0.0 | 5.0 | 0.00 | 0.01 | 0.01 | 73 | 1031.2 |
| 20260503071542 | 52 | 341 | 2.0 | 5.0 | 0.00 | 0.01 | 0.01 | 73 | 1031.2 |
| 20260503071042 | 52 | 333 | 1.0 | 5.0 | 0.00 | 0.01 | 0.01 | 73 | 1031.2 |
| 20260503070540 | 52 | 15 | 2.0 | 6.0 | 0.00 | 0.01 | 0.01 | 74 | 1031.2 |
| 20260503055033 | 53 | 344 | 2.0 | 4.0 | 0.00 | 0.01 | 0.01 | 76 | 1030.8 |
| 20260503054542 | 53 | 42 | 0.0 | 3.0 | 0.00 | 0.01 | 0.01 | 76 | 1030.8 |
| 20260503054033 | 53 | 354 | 1.0 | 8.0 | 0.00 | 0.01 | 0.01 | 76 | 1030.9 |
| 20260503053533 | 53 | 359 | 3.0 | 8.0 | 0.00 | 0.01 | 0.01 | 76 | 1031.0 |
| 20260503053034 | 53 | 341 | 3.0 | 6.0 | 0.00 | 0.01 | 0.01 | 76 | 1031.0 |
| 20260503052532 | 53 | 22 | 3.0 | 5.0 | 0.00 | 0.01 | 0.01 | 76 | 1030.9 |
| 20260503052031 | 53 | 31 | 2.0 | 5.0 | 0.00 | 0.01 | 0.01 | 76 | 1030.8 |
| 20260503051529 | 53 | 11 | 1.0 | 3.0 | 0.00 | 0.01 | 0.01 | 76 | 1030.8 |
| 20260503051028 | 53 | 24 | 1.0 | 3.0 | 0.00 | 0.01 | 0.01 | 77 | 1030.7 |
| 20260503050528 | 53 | 35 | 1.0 | 4.0 | 0.00 | 0.01 | 0.01 | 77 | 1030.7 |
| 20260503050035 | 53 | 41 | 0.0 | 4.0 | 0.00 | 0.01 | 0.01 | 77 | 1030.7 |
| 20260503045531 | 53 | 21 | 1.0 | 6.0 | 0.00 | 0.02 | 0.01 | 77 | 1030.7 |
| 20260503045027 | 53 | 359 | 2.0 | 6.0 | 0.00 | 0.02 | 0.01 | 76 | 1030.7 |
| 20260503044526 | 53 | 344 | 1.0 | 5.0 | 0.00 | 0.02 | 0.01 | 76 | 1030.6 |
| 20260503044027 | 53 | 354 | 2.0 | 5.0 | 0.00 | 0.02 | 0.01 | 76 | 1030.4 |
| 20260503043526 | 54 | 17 | 2.0 | 5.0 | 0.00 | 0.02 | 0.01 | 76 | 1030.4 |
| 20260503043026 | 54 | 306 | 2.0 | 4.0 | 0.00 | 0.02 | 0.01 | 76 | 1030.5 |
| 20260503042526 | 54 | 4 | 1.0 | 4.0 | 0.00 | 0.02 | 0.01 | 76 | 1030.7 |
| 20260503042026 | 54 | 337 | 1.0 | 5.0 | 0.00 | 0.02 | 0.01 | 76 | 1030.7 |
| 20260503041523 | 54 | 16 | 1.0 | 6.0 | 0.00 | 0.02 | 0.01 | 76 | 1030.5 |
| 20260503041024 | 54 | 347 | 1.0 | 6.0 | 0.00 | 0.02 | 0.01 | 76 | 1030.4 |
| 20260503040523 | 54 | 29 | 1.0 | 5.0 | 0.00 | 0.02 | 0.01 | 76 | 1030.5 |
| 20260503040029 | 54 | 24 | 2.0 | 8.0 | 0.00 | 0.02 | 0.01 | 76 | 1030.4 |
| 20260503035522 | 54 | 335 | 2.0 | 8.0 | 0.00 | 0.02 | 0.01 | 76 | 1030.3 |
| 20260503035022 | 54 | 314 | 1.0 | 5.0 | 0.00 | 0.02 | 0.01 | 76 | 1030.3 |
| 20260503034533 | 54 | 318 | 0.0 | 3.0 | 0.00 | 0.02 | 0.01 | 76 | 1030.2 |
| 20260503034021 | 53 | 343 | 1.0 | 4.0 | 0.00 | 0.02 | 0.01 | 76 | 1030.1 |
| 20260503033520 | 53 | 341 | 1.0 | 4.0 | 0.00 | 0.02 | 0.01 | 76 | 1030.1 |
| 20260503033027 | 53 | 13 | 1.0 | 5.0 | 0.00 | 0.02 | 0.01 | 76 | 1030.1 |
| 20260503032519 | 53 | 359 | 2.0 | 5.0 | 0.00 | 0.02 | 0.01 | 76 | 1030.0 |
| 20260503032022 | 53 | 326 | 2.0 | 4.0 | 0.00 | 0.02 | 0.01 | 76 | 1030.1 |
| 20260503031517 | 53 | 341 | 1.0 | 3.0 | 0.00 | 0.02 | 0.01 | 76 | 1030.2 |
| 20260503031020 | 53 | 327 | 1.0 | 4.0 | 0.00 | 0.02 | 0.01 | 77 | 1030.2 |
| 20260503030516 | 53 | 13 | 1.0 | 4.0 | 0.00 | 0.02 | 0.01 | 76 | 1030.0 |
| 20260503030015 | 53 | 359 | 0.0 | 4.0 | 0.00 | 0.02 | 0.01 | 76 | 1029.9 |
| 20260503025516 | 53 | 359 | 1.0 | 3.0 | 0.00 | 0.02 | 0.01 | 76 | 1030.1 |
| 20260503025016 | 54 | 341 | 1.0 | 4.0 | 0.00 | 0.02 | 0.01 | 77 | 1030.0 |
| 20260503024515 | 54 | 39 | 1.0 | 6.0 | 0.00 | 0.02 | 0.01 | 76 | 1030.0 |
| 20260503024015 | 54 | 334 | 1.0 | 6.0 | 0.00 | 0.02 | 0.01 | 76 | 1029.9 |
| 20260503023515 | 54 | 321 | 3.0 | 5.0 | 0.00 | 0.02 | 0.01 | 76 | 1029.9 |
| 20260503023014 | 54 | 332 | 2.0 | 8.0 | 0.00 | 0.02 | 0.01 | 76 | 1029.9 |
| 20260503022514 | 54 | 324 | 4.0 | 8.0 | 0.00 | 0.02 | 0.01 | 76 | 1029.9 |
| 20260503022014 | 54 | 343 | 2.0 | 9.0 | 0.00 | 0.02 | 0.01 | 76 | 1030.0 |
| 20260503021511 | 54 | 359 | 5.0 | 9.0 | 0.00 | 0.02 | 0.01 | 76 | 1029.8 |
| 20260503021011 | 54 | 18 | 3.0 | 8.0 | 0.00 | 0.02 | 0.01 | 76 | 1029.7 |
| 20260503020510 | 54 | 10 | 2.0 | 9.0 | 0.00 | 0.02 | 0.01 | 76 | 1029.6 |
| 20260503020009 | 54 | 343 | 3.0 | 9.0 | 0.00 | 0.02 | 0.01 | 76 | 1029.3 |
| 20260503015508 | 54 | 359 | 2.0 | 9.0 | 0.00 | 0.02 | 0.01 | 76 | 1029.0 |
| 20260503015010 | 54 | 4 | 3.0 | 6.0 | 0.00 | 0.02 | 0.01 | 76 | 1028.8 |
| 20260503014508 | 54 | 335 | 1.0 | 6.0 | 0.00 | 0.02 | 0.01 | 76 | 1028.6 |
| 20260503014006 | 54 | 308 | 1.0 | 6.0 | 0.00 | 0.02 | 0.01 | 76 | 1028.6 |
| 20260503013508 | 54 | 295 | 3.0 | 8.0 | 0.00 | 0.02 | 0.01 | 76 | 1028.4 |
| 20260503013016 | 54 | 12 | 4.0 | 8.0 | 0.00 | 0.02 | 0.01 | 76 | 1028.3 |
| 20260503012504 | 54 | 330 | 2.0 | 8.0 | 0.00 | 0.02 | 0.01 | 76 | 1028.4 |
| 20260503012008 | 54 | 332 | 3.0 | 8.0 | 0.00 | 0.02 | 0.01 | 76 | 1028.3 |
| 20260503011503 | 55 | 314 | 4.0 | 10.0 | 0.00 | 0.02 | 0.01 | 75 | 1028.3 |
| 20260503011002 | 55 | 303 | 4.0 | 10.0 | 0.00 | 0.02 | 0.01 | 75 | 1028.1 |
| 20260503010502 | 55 | 301 | 4.0 | 9.0 | 0.00 | 0.02 | 0.01 | 75 | 1028.0 |
| 20260503010002 | 55 | 332 | 3.0 | 9.0 | 0.00 | 0.02 | 0.01 | 75 | 1028.0 |
| 20260503005502 | 55 | 359 | 4.0 | 8.0 | 0.00 | 0.02 | 0.01 | 75 | 1028.0 |
| 20260503005002 | 55 | 341 | 3.0 | 8.0 | 0.00 | 0.02 | 0.01 | 75 | 1028.1 |
| 20260503004601 | 55 | 335 | 3.0 | 8.0 | 0.00 | 0.02 | 0.01 | 75 | 1028.1 |
| 20260503004102 | 55 | 289 | 3.0 | 8.0 | 0.00 | 0.02 | 0.01 | 75 | 1028.1 |
| 20260503004002 | 55 | 324 | 3.0 | 8.0 | 0.00 | 0.02 | 0.01 | 76 | 1028.1 |
| 20260503003600 | 55 | 354 | 2.0 | 5.0 | 0.00 | 0.02 | 0.01 | 76 | 1028.1 |
| 20260503003101 | 55 | 18 | 1.0 | 4.0 | 0.00 | 0.02 | 0.01 | 76 | 1028.1 |
| 20260503002603 | 55 | 359 | 2.0 | 5.0 | 0.00 | 0.02 | 0.01 | 76 | 1028.0 |
| 20260503002100 | 55 | 324 | 2.0 | 5.0 | 0.00 | 0.02 | 0.01 | 76 | 1028.1 |
| 20260503001604 | 55 | 339 | 2.0 | 5.0 | 0.00 | 0.02 | 0.01 | 76 | 1028.0 |
| 20260503001030 | 55 | 332 | 2.0 | 5.0 | 0.00 | 0.02 | 0.01 | 76 | 1028.0 |
| 20260503000533 | 55 | 39 | 2.0 | 5.0 | 0.00 | 0.02 | 0.01 | 76 | 1028.2 |
| 20260503000028 | 55 | 10 | 1.0 | 4.0 | 0.00 | 0.02 | 0.01 | 76 | 1028.1 |
| 20260502235528 | 55 | 311 | 0.0 | 8.0 | 0.00 | 0.02 | 0.01 | 76 | 1027.9 |
| 20260502235028 | 55 | 359 | 2.0 | 8.0 | 0.00 | 0.02 | 0.01 | 76 | 1027.9 |
| 20260502234531 | 55 | 338 | 3.0 | 8.0 | 0.00 | 0.02 | 0.01 | 76 | 1027.9 |
| 20260502234024 | 55 | 318 | 2.0 | 5.0 | 0.00 | 0.02 | 0.01 | 76 | 1028.0 |
| 20260502233523 | 55 | 34 | 1.0 | 9.0 | 0.00 | 0.02 | 0.01 | 76 | 1027.8 |
| 20260502233022 | 55 | 338 | 1.0 | 5.0 | 0.00 | 0.02 | 0.01 | 76 | 1027.8 |
| 20260502232522 | 55 | 321 | 1.0 | 5.0 | 0.00 | 0.02 | 0.01 | 76 | 1027.7 |
| 20260502232022 | 55 | 359 | 2.0 | 5.0 | 0.00 | 0.02 | 0.01 | 76 | 1027.6 |
| 20260502231522 | 55 | 297 | 2.0 | 5.0 | 0.00 | 0.02 | 0.01 | 76 | 1027.6 |
| 20260502231021 | 55 | 340 | 1.0 | 5.0 | 0.00 | 0.02 | 0.01 | 75 | 1027.7 |
| 20260502230520 | 55 | 325 | 2.0 | 5.0 | 0.00 | 0.02 | 0.01 | 75 | 1027.6 |
| 20260502230020 | 55 | 4 | 1.0 | 8.0 | 0.00 | 0.02 | 0.01 | 75 | 1027.6 |